sensor_id;sensor_type;location;lat;lon;timestamp;temperature;humidity
61255;DHT22;47128;47.530;8.584;2023-05-10T00:00:32;14.40;99.90
61255;DHT22;47128;47.530;8.584;2023-05-10T00:02:58;14.40;99.90
61255;DHT22;47128;47.530;8.584;2023-05-10T00:05:24;14.50;99.90
61255;DHT22;47128;47.530;8.584;2023-05-10T00:07:49;14.40;99.90
61255;DHT22;47128;47.530;8.584;2023-05-10T00:10:15;14.40;99.90
61255;DHT22;47128;47.530;8.584;2023-05-10T00:12:40;14.50;99.90
61255;DHT22;47128;47.530;8.584;2023-05-10T00:15:06;14.40;99.90
61255;DHT22;47128;47.530;8.584;2023-05-10T00:17:32;14.40;99.90
61255;DHT22;47128;47.530;8.584;2023-05-10T00:19:57;14.30;99.90
61255;DHT22;47128;47.530;8.584;2023-05-10T00:22:23;14.40;99.90
61255;DHT22;47128;47.530;8.584;2023-05-10T00:24:49;14.40;99.90
61255;DHT22;47128;47.530;8.584;2023-05-10T00:27:15;14.30;99.90
61255;DHT22;47128;47.530;8.584;2023-05-10T00:29:40;14.40;99.90
61255;DHT22;47128;47.530;8.584;2023-05-10T00:32:06;14.40;99.90
61255;DHT22;47128;47.530;8.584;2023-05-10T00:34:31;14.40;99.90
61255;DHT22;47128;47.530;8.584;2023-05-10T00:36:57;14.40;99.90
61255;DHT22;47128;47.530;8.584;2023-05-10T00:39:23;14.30;99.90
61255;DHT22;47128;47.530;8.584;2023-05-10T00:41:48;14.40;99.90
61255;DHT22;47128;47.530;8.584;2023-05-10T00:44:14;14.40;99.90
61255;DHT22;47128;47.530;8.584;2023-05-10T00:46:40;14.40;99.90
61255;DHT22;47128;47.530;8.584;2023-05-10T00:49:06;14.50;99.90
61255;DHT22;47128;47.530;8.584;2023-05-10T00:51:31;14.40;99.90
61255;DHT22;47128;47.530;8.584;2023-05-10T00:53:57;14.30;99.90
61255;DHT22;47128;47.530;8.584;2023-05-10T00:56:24;14.20;99.90
61255;DHT22;47128;47.530;8.584;2023-05-10T00:58:50;14.20;99.90
61255;DHT22;47128;47.530;8.584;2023-05-10T01:01:16;14.20;99.90
61255;DHT22;47128;47.530;8.584;2023-05-10T01:03:41;14.30;99.90
61255;DHT22;47128;47.530;8.584;2023-05-10T01:06:07;14.20;99.90
61255;DHT22;47128;47.530;8.584;2023-05-10T01:08:33;14.20;99.90
61255;DHT22;47128;47.530;8.584;2023-05-10T01:10:58;14.20;99.90
61255;DHT22;47128;47.530;8.584;2023-05-10T01:13:43;14.20;99.90
61255;DHT22;47128;47.530;8.584;2023-05-10T01:16:10;14.20;99.90
61255;DHT22;47128;47.530;8.584;2023-05-10T01:18:38;14.20;99.90
61255;DHT22;47128;47.530;8.584;2023-05-10T01:21:48;14.10;99.90
61255;DHT22;47128;47.530;8.584;2023-05-10T01:34:23;14.10;99.90
61255;DHT22;47128;47.530;8.584;2023-05-10T01:36:51;14.00;99.90
61255;DHT22;47128;47.530;8.584;2023-05-10T01:47:15;14.00;99.90
61255;DHT22;47128;47.530;8.584;2023-05-10T01:49:50;13.90;99.90
61255;DHT22;47128;47.530;8.584;2023-05-10T01:52:16;14.10;99.90
61255;DHT22;47128;47.530;8.584;2023-05-10T01:54:45;14.00;99.90
61255;DHT22;47128;47.530;8.584;2023-05-10T01:57:13;13.90;99.90
61255;DHT22;47128;47.530;8.584;2023-05-10T01:59:39;13.80;99.90
61255;DHT22;47128;47.530;8.584;2023-05-10T02:02:06;13.90;99.90
61255;DHT22;47128;47.530;8.584;2023-05-10T02:04:32;13.90;99.90
61255;DHT22;47128;47.530;8.584;2023-05-10T06:01:46;14.30;99.90
61255;DHT22;47128;47.530;8.584;2023-05-10T06:04:18;14.20;99.90
61255;DHT22;47128;47.530;8.584;2023-05-10T06:06:44;14.10;99.90
61255;DHT22;47128;47.530;8.584;2023-05-10T06:09:10;14.10;99.90
61255;DHT22;47128;47.530;8.584;2023-05-10T06:11:37;14.10;99.90
61255;DHT22;47128;47.530;8.584;2023-05-10T06:14:02;14.20;99.90
61255;DHT22;47128;47.530;8.584;2023-05-10T06:19:32;14.40;99.90
61255;DHT22;47128;47.530;8.584;2023-05-10T06:22:15;14.50;99.90
61255;DHT22;47128;47.530;8.584;2023-05-10T06:24:40;14.50;99.90
61255;DHT22;47128;47.530;8.584;2023-05-10T06:30:09;14.50;99.90
61255;DHT22;47128;47.530;8.584;2023-05-10T06:32:35;14.50;99.90
61255;DHT22;47128;47.530;8.584;2023-05-10T06:35:00;14.50;99.90
61255;DHT22;47128;47.530;8.584;2023-05-10T06:37:26;14.50;99.90
61255;DHT22;47128;47.530;8.584;2023-05-10T06:42:21;14.50;99.90
61255;DHT22;47128;47.530;8.584;2023-05-10T06:44:47;14.50;99.90
61255;DHT22;47128;47.530;8.584;2023-05-10T06:47:13;14.50;99.90
61255;DHT22;47128;47.530;8.584;2023-05-10T06:49:40;14.50;99.90
61255;DHT22;47128;47.530;8.584;2023-05-10T06:52:08;14.70;99.90
61255;DHT22;47128;47.530;8.584;2023-05-10T06:54:34;14.70;99.90
61255;DHT22;47128;47.530;8.584;2023-05-10T06:57:00;14.70;99.90
61255;DHT22;47128;47.530;8.584;2023-05-10T06:59:29;14.60;99.90
61255;DHT22;47128;47.530;8.584;2023-05-10T07:01:55;14.60;99.90
61255;DHT22;47128;47.530;8.584;2023-05-10T07:07:24;14.60;99.90
61255;DHT22;47128;47.530;8.584;2023-05-10T07:09:54;14.60;99.90
61255;DHT22;47128;47.530;8.584;2023-05-10T07:12:23;14.60;99.90
61255;DHT22;47128;47.530;8.584;2023-05-10T07:15:01;14.70;99.90
61255;DHT22;47128;47.530;8.584;2023-05-10T07:26:28;14.50;99.90
61255;DHT22;47128;47.530;8.584;2023-05-10T07:28:54;14.40;99.90
61255;DHT22;47128;47.530;8.584;2023-05-10T07:31:32;14.40;99.90
61255;DHT22;47128;47.530;8.584;2023-05-10T07:45:34;14.50;99.90
61255;DHT22;47128;47.530;8.584;2023-05-10T07:54:07;14.80;99.90
61255;DHT22;47128;47.530;8.584;2023-05-10T07:59:39;14.80;99.90
61255;DHT22;47128;47.530;8.584;2023-05-10T08:05:09;14.90;99.90
61255;DHT22;47128;47.530;8.584;2023-05-10T08:10:46;15.20;99.90
61255;DHT22;47128;47.530;8.584;2023-05-10T08:13:27;15.30;99.90
61255;DHT22;47128;47.530;8.584;2023-05-10T08:16:05;15.30;99.90
61255;DHT22;47128;47.530;8.584;2023-05-10T08:21:38;15.60;99.90
61255;DHT22;47128;47.530;8.584;2023-05-10T08:24:23;15.50;99.90
61255;DHT22;47128;47.530;8.584;2023-05-10T08:27:26;15.50;99.90
61255;DHT22;47128;47.530;8.584;2023-05-10T08:29:54;15.60;99.90
61255;DHT22;47128;47.530;8.584;2023-05-10T08:32:34;15.70;99.90
61255;DHT22;47128;47.530;8.584;2023-05-10T08:35:26;15.80;99.90
61255;DHT22;47128;47.530;8.584;2023-05-10T08:37:53;15.80;99.90
61255;DHT22;47128;47.530;8.584;2023-05-10T08:40:44;15.70;99.90
61255;DHT22;47128;47.530;8.584;2023-05-10T08:43:35;15.70;99.90
61255;DHT22;47128;47.530;8.584;2023-05-10T09:03:28;15.90;99.90
61255;DHT22;47128;47.530;8.584;2023-05-10T09:08:23;16.00;99.90
61255;DHT22;47128;47.530;8.584;2023-05-10T09:10:56;16.00;99.90
61255;DHT22;47128;47.530;8.584;2023-05-10T09:13:24;16.00;99.90
61255;DHT22;47128;47.530;8.584;2023-05-10T09:15:54;16.10;99.90
61255;DHT22;47128;47.530;8.584;2023-05-10T09:18:22;15.90;99.90
61255;DHT22;47128;47.530;8.584;2023-05-10T09:20:50;15.80;99.90
61255;DHT22;47128;47.530;8.584;2023-05-10T09:23:23;16.00;99.90
61255;DHT22;47128;47.530;8.584;2023-05-10T09:31:47;16.40;98.10
61255;DHT22;47128;47.530;8.584;2023-05-10T09:34:17;16.60;99.90
61255;DHT22;47128;47.530;8.584;2023-05-10T09:36:54;16.60;97.70
61255;DHT22;47128;47.530;8.584;2023-05-10T09:39:19;16.60;97.50
61255;DHT22;47128;47.530;8.584;2023-05-10T09:41:46;16.80;99.90
61255;DHT22;47128;47.530;8.584;2023-05-10T09:44:16;16.60;99.90
61255;DHT22;47128;47.530;8.584;2023-05-10T09:46:48;16.70;99.90
61255;DHT22;47128;47.530;8.584;2023-05-10T09:51:40;17.00;94.90
61255;DHT22;47128;47.530;8.584;2023-05-10T09:54:11;17.00;95.30
61255;DHT22;47128;47.530;8.584;2023-05-10T09:56:44;16.80;94.50
61255;DHT22;47128;47.530;8.584;2023-05-10T09:59:11;16.70;94.80
61255;DHT22;47128;47.530;8.584;2023-05-10T10:01:39;16.60;94.50
61255;DHT22;47128;47.530;8.584;2023-05-10T10:04:08;16.50;94.40
61255;DHT22;47128;47.530;8.584;2023-05-10T10:06:57;16.40;94.30
61255;DHT22;47128;47.530;8.584;2023-05-10T10:09:29;16.40;94.80
61255;DHT22;47128;47.530;8.584;2023-05-10T10:12:01;16.60;94.90
61255;DHT22;47128;47.530;8.584;2023-05-10T10:14:44;16.70;94.30
61255;DHT22;47128;47.530;8.584;2023-05-10T10:26:43;16.80;94.00
61255;DHT22;47128;47.530;8.584;2023-05-10T10:38:21;16.70;93.10
61255;DHT22;47128;47.530;8.584;2023-05-10T10:49:27;16.80;92.00
61255;DHT22;47128;47.530;8.584;2023-05-10T10:54:54;16.70;91.90
61255;DHT22;47128;47.530;8.584;2023-05-10T10:57:24;16.90;91.80
61255;DHT22;47128;47.530;8.584;2023-05-10T11:03:11;17.20;92.10
61255;DHT22;47128;47.530;8.584;2023-05-10T11:09:07;17.10;91.80
61255;DHT22;47128;47.530;8.584;2023-05-10T11:11:48;17.00;92.00
61255;DHT22;47128;47.530;8.584;2023-05-10T11:14:40;16.80;92.10
61255;DHT22;47128;47.530;8.584;2023-05-10T11:20:09;16.90;91.90
61255;DHT22;47128;47.530;8.584;2023-05-10T11:28:04;16.50;94.60
61255;DHT22;47128;47.530;8.584;2023-05-10T11:36:35;16.50;93.70
61255;DHT22;47128;47.530;8.584;2023-05-10T11:39:01;16.60;93.70
61255;DHT22;47128;47.530;8.584;2023-05-10T11:41:29;16.70;93.60
61255;DHT22;47128;47.530;8.584;2023-05-10T11:43:56;16.80;93.30
61255;DHT22;47128;47.530;8.584;2023-05-10T11:46:26;16.80;93.40
61255;DHT22;47128;47.530;8.584;2023-05-10T11:48:53;17.00;91.40
61255;DHT22;47128;47.530;8.584;2023-05-10T11:51:19;17.30;90.50
61255;DHT22;47128;47.530;8.584;2023-05-10T11:53:45;17.30;90.80
61255;DHT22;47128;47.530;8.584;2023-05-10T11:56:14;17.30;90.50
61255;DHT22;47128;47.530;8.584;2023-05-10T11:58:40;17.20;90.60
61255;DHT22;47128;47.530;8.584;2023-05-10T12:01:16;17.30;90.70
61255;DHT22;47128;47.530;8.584;2023-05-10T12:06:51;17.50;90.60
61255;DHT22;47128;47.530;8.584;2023-05-10T12:12:21;17.60;90.70
61255;DHT22;47128;47.530;8.584;2023-05-10T12:23:39;18.00;88.50
61255;DHT22;47128;47.530;8.584;2023-05-10T12:32:00;18.20;87.90
61255;DHT22;47128;47.530;8.584;2023-05-10T12:34:30;18.30;88.30
61255;DHT22;47128;47.530;8.584;2023-05-10T12:36:56;18.40;88.90
61255;DHT22;47128;47.530;8.584;2023-05-10T12:39:23;18.50;89.10
61255;DHT22;47128;47.530;8.584;2023-05-10T12:41:51;18.70;89.00
61255;DHT22;47128;47.530;8.584;2023-05-10T12:50:25;18.70;92.00
61255;DHT22;47128;47.530;8.584;2023-05-10T12:52:56;18.70;92.50
61255;DHT22;47128;47.530;8.584;2023-05-10T12:58:32;18.50;93.00
61255;DHT22;47128;47.530;8.584;2023-05-10T13:00:58;18.60;93.10
61255;DHT22;47128;47.530;8.584;2023-05-10T13:03:27;18.70;92.80
61255;DHT22;47128;47.530;8.584;2023-05-10T13:05:54;18.40;92.80
61255;DHT22;47128;47.530;8.584;2023-05-10T13:08:19;18.20;88.60
61255;DHT22;47128;47.530;8.584;2023-05-10T13:11:01;18.00;88.30
61255;DHT22;47128;47.530;8.584;2023-05-10T13:13:28;18.00;88.10
61255;DHT22;47128;47.530;8.584;2023-05-10T13:21:59;18.20;87.00
61255;DHT22;47128;47.530;8.584;2023-05-10T13:24:25;18.50;87.40
61255;DHT22;47128;47.530;8.584;2023-05-10T13:26:51;18.50;86.50
61255;DHT22;47128;47.530;8.584;2023-05-10T13:29:19;18.50;85.40
61255;DHT22;47128;47.530;8.584;2023-05-10T13:31:46;18.50;86.70
61255;DHT22;47128;47.530;8.584;2023-05-10T13:34:13;18.30;86.70
61255;DHT22;47128;47.530;8.584;2023-05-10T13:36:43;18.40;85.70
61255;DHT22;47128;47.530;8.584;2023-05-10T13:51:07;18.80;84.80
61255;DHT22;47128;47.530;8.584;2023-05-10T13:56:36;18.90;84.60
61255;DHT22;47128;47.530;8.584;2023-05-10T14:02:04;18.50;84.60
61255;DHT22;47128;47.530;8.584;2023-05-10T14:13:08;18.70;85.40
61255;DHT22;47128;47.530;8.584;2023-05-10T14:18:36;18.70;84.90
61255;DHT22;47128;47.530;8.584;2023-05-10T14:24:11;18.10;86.70
61255;DHT22;47128;47.530;8.584;2023-05-10T14:29:40;17.80;86.70
61255;DHT22;47128;47.530;8.584;2023-05-10T14:32:08;17.80;86.80
61255;DHT22;47128;47.530;8.584;2023-05-10T14:34:34;17.70;86.70
61255;DHT22;47128;47.530;8.584;2023-05-10T14:40:00;18.10;85.80
61255;DHT22;47128;47.530;8.584;2023-05-10T14:42:37;18.20;85.20
61255;DHT22;47128;47.530;8.584;2023-05-10T14:45:07;18.10;91.20
61255;DHT22;47128;47.530;8.584;2023-05-10T14:47:32;17.70;93.10
61255;DHT22;47128;47.530;8.584;2023-05-10T14:49:58;17.70;95.40
61255;DHT22;47128;47.530;8.584;2023-05-10T14:52:24;17.70;93.80
61255;DHT22;47128;47.530;8.584;2023-05-10T14:54:51;17.70;95.60
61255;DHT22;47128;47.530;8.584;2023-05-10T14:57:16;17.60;95.90
61255;DHT22;47128;47.530;8.584;2023-05-10T14:59:42;17.70;94.70
61255;DHT22;47128;47.530;8.584;2023-05-10T15:02:08;17.60;96.90
61255;DHT22;47128;47.530;8.584;2023-05-10T15:04:39;17.30;95.90
61255;DHT22;47128;47.530;8.584;2023-05-10T15:09:50;17.20;95.20
61255;DHT22;47128;47.530;8.584;2023-05-10T15:12:29;17.20;95.00
61255;DHT22;47128;47.530;8.584;2023-05-10T15:14:57;17.20;95.10
61255;DHT22;47128;47.530;8.584;2023-05-10T15:17:23;17.00;96.90
61255;DHT22;47128;47.530;8.584;2023-05-10T15:23:03;16.50;96.60
61255;DHT22;47128;47.530;8.584;2023-05-10T15:30:58;16.40;98.60
61255;DHT22;47128;47.530;8.584;2023-05-10T15:33:24;16.30;99.90
61255;DHT22;47128;47.530;8.584;2023-05-10T15:35:50;16.50;99.90
61255;DHT22;47128;47.530;8.584;2023-05-10T15:38:15;16.40;99.90
61255;DHT22;47128;47.530;8.584;2023-05-10T15:40:41;16.40;99.90
61255;DHT22;47128;47.530;8.584;2023-05-10T15:45:33;16.20;99.90
61255;DHT22;47128;47.530;8.584;2023-05-10T15:47:58;16.20;99.90
61255;DHT22;47128;47.530;8.584;2023-05-10T15:50:24;16.20;99.90
61255;DHT22;47128;47.530;8.584;2023-05-10T15:52:51;16.30;99.90
61255;DHT22;47128;47.530;8.584;2023-05-10T15:55:16;16.30;99.90
61255;DHT22;47128;47.530;8.584;2023-05-10T15:57:42;16.30;99.90
61255;DHT22;47128;47.530;8.584;2023-05-10T16:00:08;16.40;99.90
61255;DHT22;47128;47.530;8.584;2023-05-10T16:02:34;16.40;99.90
61255;DHT22;47128;47.530;8.584;2023-05-10T16:05:00;16.40;99.90
61255;DHT22;47128;47.530;8.584;2023-05-10T16:07:26;16.50;99.90
61255;DHT22;47128;47.530;8.584;2023-05-10T16:09:51;16.60;99.90
61255;DHT22;47128;47.530;8.584;2023-05-10T16:12:17;16.60;99.90
61255;DHT22;47128;47.530;8.584;2023-05-10T16:14:43;16.60;99.90
61255;DHT22;47128;47.530;8.584;2023-05-10T16:17:08;16.60;99.90
61255;DHT22;47128;47.530;8.584;2023-05-10T16:19:34;16.80;99.90
61255;DHT22;47128;47.530;8.584;2023-05-10T16:22:00;16.90;99.90
61255;DHT22;47128;47.530;8.584;2023-05-10T16:24:25;17.00;99.90
61255;DHT22;47128;47.530;8.584;2023-05-10T16:26:51;16.90;99.90
61255;DHT22;47128;47.530;8.584;2023-05-10T16:29:17;16.90;99.90
61255;DHT22;47128;47.530;8.584;2023-05-10T16:31:43;16.70;99.90
61255;DHT22;47128;47.530;8.584;2023-05-10T16:34:08;16.90;99.90
61255;DHT22;47128;47.530;8.584;2023-05-10T16:39:37;16.70;99.90
61255;DHT22;47128;47.530;8.584;2023-05-10T16:42:02;16.70;99.90
61255;DHT22;47128;47.530;8.584;2023-05-10T16:44:28;16.60;99.90
61255;DHT22;47128;47.530;8.584;2023-05-10T16:46:53;16.50;99.90
61255;DHT22;47128;47.530;8.584;2023-05-10T16:56:37;16.50;99.90
61255;DHT22;47128;47.530;8.584;2023-05-10T16:59:03;16.50;99.90
61255;DHT22;47128;47.530;8.584;2023-05-10T17:01:30;16.50;99.90
61255;DHT22;47128;47.530;8.584;2023-05-10T17:03:56;16.60;99.90
61255;DHT22;47128;47.530;8.584;2023-05-10T17:06:21;16.60;99.90
61255;DHT22;47128;47.530;8.584;2023-05-10T17:23:23;15.90;97.00
61255;DHT22;47128;47.530;8.584;2023-05-10T17:25:49;15.90;96.90
61255;DHT22;47128;47.530;8.584;2023-05-10T17:28:15;15.70;97.00
61255;DHT22;47128;47.530;8.584;2023-05-10T17:30:41;15.60;96.80
61255;DHT22;47128;47.530;8.584;2023-05-10T17:33:07;15.50;96.10
61255;DHT22;47128;47.530;8.584;2023-05-10T17:35:32;15.40;96.30
61255;DHT22;47128;47.530;8.584;2023-05-10T17:37:58;15.50;99.20
61255;DHT22;47128;47.530;8.584;2023-05-10T17:40:24;15.30;97.60
61255;DHT22;47128;47.530;8.584;2023-05-10T17:42:49;15.50;99.00
61255;DHT22;47128;47.530;8.584;2023-05-10T17:45:16;15.50;98.50
61255;DHT22;47128;47.530;8.584;2023-05-10T17:47:42;15.40;95.70
61255;DHT22;47128;47.530;8.584;2023-05-10T17:50:08;15.30;96.70
61255;DHT22;47128;47.530;8.584;2023-05-10T17:52:34;15.20;97.10
61255;DHT22;47128;47.530;8.584;2023-05-10T17:54:59;15.20;96.90
61255;DHT22;47128;47.530;8.584;2023-05-10T17:57:26;15.20;97.10
61255;DHT22;47128;47.530;8.584;2023-05-10T17:59:52;15.30;97.10
61255;DHT22;47128;47.530;8.584;2023-05-10T18:19:19;14.80;99.90
61255;DHT22;47128;47.530;8.584;2023-05-10T18:21:47;15.00;99.90
61255;DHT22;47128;47.530;8.584;2023-05-10T18:24:12;14.80;99.90
61255;DHT22;47128;47.530;8.584;2023-05-10T18:26:38;14.70;99.90
61255;DHT22;47128;47.530;8.584;2023-05-10T18:29:03;14.70;99.90
61255;DHT22;47128;47.530;8.584;2023-05-10T18:31:29;14.70;99.90
61255;DHT22;47128;47.530;8.584;2023-05-10T18:33:55;14.70;99.90
61255;DHT22;47128;47.530;8.584;2023-05-10T18:36:21;14.70;99.90
61255;DHT22;47128;47.530;8.584;2023-05-10T18:38:48;14.80;99.90
61255;DHT22;47128;47.530;8.584;2023-05-10T18:41:13;14.80;99.90
61255;DHT22;47128;47.530;8.584;2023-05-10T18:43:39;14.70;99.90
61255;DHT22;47128;47.530;8.584;2023-05-10T18:48:32;14.60;99.90
61255;DHT22;47128;47.530;8.584;2023-05-10T18:50:58;14.60;99.90
61255;DHT22;47128;47.530;8.584;2023-05-10T18:53:25;14.40;99.90
61255;DHT22;47128;47.530;8.584;2023-05-10T19:10:28;14.00;99.90
61255;DHT22;47128;47.530;8.584;2023-05-10T19:12:53;13.90;99.90
61255;DHT22;47128;47.530;8.584;2023-05-10T19:15:19;13.90;99.90
61255;DHT22;47128;47.530;8.584;2023-05-10T19:17:44;13.80;99.90
61255;DHT22;47128;47.530;8.584;2023-05-10T19:20:10;13.70;99.90
61255;DHT22;47128;47.530;8.584;2023-05-10T19:22:36;13.70;99.90
61255;DHT22;47128;47.530;8.584;2023-05-10T19:25:03;13.70;99.90
61255;DHT22;47128;47.530;8.584;2023-05-10T19:27:28;13.70;99.90
61255;DHT22;47128;47.530;8.584;2023-05-10T19:29:54;13.70;99.90
61255;DHT22;47128;47.530;8.584;2023-05-10T19:32:20;13.60;99.90
61255;DHT22;47128;47.530;8.584;2023-05-10T19:34:46;13.70;99.90
61255;DHT22;47128;47.530;8.584;2023-05-10T19:37:12;13.70;99.90
61255;DHT22;47128;47.530;8.584;2023-05-10T19:39:37;13.60;99.90
61255;DHT22;47128;47.530;8.584;2023-05-10T19:42:03;13.60;99.90
61255;DHT22;47128;47.530;8.584;2023-05-10T19:44:29;13.40;99.90
61255;DHT22;47128;47.530;8.584;2023-05-10T19:46:55;13.40;99.90
61255;DHT22;47128;47.530;8.584;2023-05-10T19:52:24;13.30;99.90
61255;DHT22;47128;47.530;8.584;2023-05-10T19:54:50;13.30;99.90
61255;DHT22;47128;47.530;8.584;2023-05-10T19:57:15;13.20;99.90
61255;DHT22;47128;47.530;8.584;2023-05-10T19:59:41;13.20;99.90
61255;DHT22;47128;47.530;8.584;2023-05-10T20:02:06;13.30;99.90
61255;DHT22;47128;47.530;8.584;2023-05-10T20:04:32;13.30;99.90
61255;DHT22;47128;47.530;8.584;2023-05-10T20:06:58;13.30;99.90
61255;DHT22;47128;47.530;8.584;2023-05-10T20:09:23;13.30;99.90
61255;DHT22;47128;47.530;8.584;2023-05-10T20:11:49;13.20;99.90
61255;DHT22;47128;47.530;8.584;2023-05-10T20:14:15;13.10;99.90
61255;DHT22;47128;47.530;8.584;2023-05-10T20:16:40;13.10;99.90
61255;DHT22;47128;47.530;8.584;2023-05-10T20:19:06;13.10;99.90
61255;DHT22;47128;47.530;8.584;2023-05-10T20:21:32;13.00;99.90
61255;DHT22;47128;47.530;8.584;2023-05-10T20:23:58;13.00;99.90
61255;DHT22;47128;47.530;8.584;2023-05-10T20:26:24;13.00;99.90
61255;DHT22;47128;47.530;8.584;2023-05-10T20:28:50;13.00;99.90
61255;DHT22;47128;47.530;8.584;2023-05-10T20:31:15;13.00;99.90
61255;DHT22;47128;47.530;8.584;2023-05-10T20:33:41;13.10;99.90
61255;DHT22;47128;47.530;8.584;2023-05-10T20:36:07;13.10;99.90
61255;DHT22;47128;47.530;8.584;2023-05-10T20:38:34;13.00;99.90
61255;DHT22;47128;47.530;8.584;2023-05-10T20:40:59;13.00;99.90
61255;DHT22;47128;47.530;8.584;2023-05-10T20:43:27;13.00;99.90
61255;DHT22;47128;47.530;8.584;2023-05-10T20:45:53;13.00;99.90
61255;DHT22;47128;47.530;8.584;2023-05-10T20:48:19;13.10;99.90
61255;DHT22;47128;47.530;8.584;2023-05-10T20:50:44;13.10;99.90
61255;DHT22;47128;47.530;8.584;2023-05-10T20:53:10;13.10;99.90
61255;DHT22;47128;47.530;8.584;2023-05-10T20:55:37;13.20;99.90
61255;DHT22;47128;47.530;8.584;2023-05-10T20:58:03;13.20;99.90
61255;DHT22;47128;47.530;8.584;2023-05-10T21:00:28;13.20;99.90
61255;DHT22;47128;47.530;8.584;2023-05-10T21:02:54;13.20;99.90
61255;DHT22;47128;47.530;8.584;2023-05-10T21:05:21;13.20;99.90
61255;DHT22;47128;47.530;8.584;2023-05-10T21:07:46;13.10;99.90
61255;DHT22;47128;47.530;8.584;2023-05-10T21:10:13;13.20;99.90
61255;DHT22;47128;47.530;8.584;2023-05-10T21:12:39;13.10;99.90
61255;DHT22;47128;47.530;8.584;2023-05-10T21:15:04;13.00;99.90
61255;DHT22;47128;47.530;8.584;2023-05-10T21:17:30;13.10;99.90
61255;DHT22;47128;47.530;8.584;2023-05-10T21:19:56;13.10;99.90
61255;DHT22;47128;47.530;8.584;2023-05-10T21:22:21;13.10;99.90
61255;DHT22;47128;47.530;8.584;2023-05-10T21:24:47;13.10;99.90
61255;DHT22;47128;47.530;8.584;2023-05-10T21:27:13;13.20;99.90
61255;DHT22;47128;47.530;8.584;2023-05-10T21:29:38;13.20;99.90
61255;DHT22;47128;47.530;8.584;2023-05-10T21:32:04;13.10;99.90
61255;DHT22;47128;47.530;8.584;2023-05-10T21:34:30;13.00;99.90
61255;DHT22;47128;47.530;8.584;2023-05-10T21:36:55;13.10;99.90
61255;DHT22;47128;47.530;8.584;2023-05-10T21:39:21;13.10;99.90
61255;DHT22;47128;47.530;8.584;2023-05-10T21:41:46;13.10;99.90
61255;DHT22;47128;47.530;8.584;2023-05-10T21:44:12;13.00;99.90
61255;DHT22;47128;47.530;8.584;2023-05-10T21:46:38;13.00;99.90
61255;DHT22;47128;47.530;8.584;2023-05-10T21:49:04;13.00;99.90
61255;DHT22;47128;47.530;8.584;2023-05-10T21:51:29;13.00;99.90
61255;DHT22;47128;47.530;8.584;2023-05-10T21:53:55;13.00;99.90
61255;DHT22;47128;47.530;8.584;2023-05-10T21:56:21;13.00;99.90
61255;DHT22;47128;47.530;8.584;2023-05-10T21:58:47;12.90;99.90
61255;DHT22;47128;47.530;8.584;2023-05-10T22:01:12;12.90;99.90
61255;DHT22;47128;47.530;8.584;2023-05-10T22:03:39;12.90;99.90
61255;DHT22;47128;47.530;8.584;2023-05-10T22:06:05;12.80;99.90
61255;DHT22;47128;47.530;8.584;2023-05-10T22:08:30;12.80;99.90
61255;DHT22;47128;47.530;8.584;2023-05-10T22:10:56;12.80;99.90
61255;DHT22;47128;47.530;8.584;2023-05-10T22:13:21;12.80;99.90
61255;DHT22;47128;47.530;8.584;2023-05-10T22:15:47;12.60;99.90
61255;DHT22;47128;47.530;8.584;2023-05-10T22:18:12;12.70;99.90
61255;DHT22;47128;47.530;8.584;2023-05-10T22:20:38;12.70;99.90
61255;DHT22;47128;47.530;8.584;2023-05-10T22:23:04;12.90;99.90
61255;DHT22;47128;47.530;8.584;2023-05-10T22:25:29;13.00;99.90
61255;DHT22;47128;47.530;8.584;2023-05-10T22:27:55;13.00;99.90
61255;DHT22;47128;47.530;8.584;2023-05-10T22:30:20;13.10;99.90
61255;DHT22;47128;47.530;8.584;2023-05-10T22:32:46;13.10;99.90
61255;DHT22;47128;47.530;8.584;2023-05-10T22:35:12;13.10;99.90
61255;DHT22;47128;47.530;8.584;2023-05-10T22:37:37;13.20;99.90
61255;DHT22;47128;47.530;8.584;2023-05-10T22:40:03;13.20;99.90
61255;DHT22;47128;47.530;8.584;2023-05-10T22:42:28;13.20;99.90
61255;DHT22;47128;47.530;8.584;2023-05-10T22:44:54;13.20;99.90
61255;DHT22;47128;47.530;8.584;2023-05-10T22:47:20;13.20;99.90
61255;DHT22;47128;47.530;8.584;2023-05-10T22:49:46;13.10;99.90
61255;DHT22;47128;47.530;8.584;2023-05-10T22:52:12;13.00;99.90
61255;DHT22;47128;47.530;8.584;2023-05-10T22:54:37;13.10;99.90
61255;DHT22;47128;47.530;8.584;2023-05-10T22:57:03;13.00;99.90
61255;DHT22;47128;47.530;8.584;2023-05-10T22:59:28;13.00;99.90
61255;DHT22;47128;47.530;8.584;2023-05-10T23:01:54;12.90;99.90
61255;DHT22;47128;47.530;8.584;2023-05-10T23:04:20;12.80;99.90
61255;DHT22;47128;47.530;8.584;2023-05-10T23:06:45;12.70;99.90
61255;DHT22;47128;47.530;8.584;2023-05-10T23:09:11;12.70;99.90
61255;DHT22;47128;47.530;8.584;2023-05-10T23:11:37;12.60;99.90
61255;DHT22;47128;47.530;8.584;2023-05-10T23:14:02;12.70;99.90
61255;DHT22;47128;47.530;8.584;2023-05-10T23:16:28;12.60;99.90
61255;DHT22;47128;47.530;8.584;2023-05-10T23:18:53;12.60;99.90
61255;DHT22;47128;47.530;8.584;2023-05-10T23:21:19;12.50;99.90
61255;DHT22;47128;47.530;8.584;2023-05-10T23:23:45;12.50;99.90
61255;DHT22;47128;47.530;8.584;2023-05-10T23:26:10;12.50;99.90
61255;DHT22;47128;47.530;8.584;2023-05-10T23:28:36;12.50;99.90
61255;DHT22;47128;47.530;8.584;2023-05-10T23:31:02;12.50;99.90
61255;DHT22;47128;47.530;8.584;2023-05-10T23:33:27;12.50;99.90
61255;DHT22;47128;47.530;8.584;2023-05-10T23:35:53;12.50;99.90
61255;DHT22;47128;47.530;8.584;2023-05-10T23:38:19;12.50;99.90
61255;DHT22;47128;47.530;8.584;2023-05-10T23:40:48;12.50;99.90
61255;DHT22;47128;47.530;8.584;2023-05-10T23:43:15;12.40;99.90
61255;DHT22;47128;47.530;8.584;2023-05-10T23:45:42;12.40;99.90
61255;DHT22;47128;47.530;8.584;2023-05-10T23:48:08;12.40;99.90
61255;DHT22;47128;47.530;8.584;2023-05-10T23:50:33;12.40;99.90
61255;DHT22;47128;47.530;8.584;2023-05-10T23:52:59;12.40;99.90
61255;DHT22;47128;47.530;8.584;2023-05-10T23:55:25;12.40;99.90
61255;DHT22;47128;47.530;8.584;2023-05-10T23:57:51;12.40;99.90
